sensor_id;sensor_type;location;lat;lon;timestamp;P1;durP1;ratioP1;P2;durP2;ratioP2
58091;SDS011;43896;48.178;11.578;2023-04-05T00:00:40;11.15;;;6.63;;
58091;SDS011;43896;48.178;11.578;2023-04-05T00:03:06;10.75;;;6.70;;
58091;SDS011;43896;48.178;11.578;2023-04-05T00:05:34;10.85;;;6.75;;
58091;SDS011;43896;48.178;11.578;2023-04-05T00:08:01;11.38;;;7.38;;
58091;SDS011;43896;48.178;11.578;2023-04-05T00:10:27;10.10;;;6.63;;
58091;SDS011;43896;48.178;11.578;2023-04-05T00:12:54;12.63;;;7.00;;
58091;SDS011;43896;48.178;11.578;2023-04-05T00:15:20;11.65;;;6.65;;
58091;SDS011;43896;48.178;11.578;2023-04-05T00:17:46;11.85;;;7.03;;
58091;SDS011;43896;48.178;11.578;2023-04-05T00:20:11;10.07;;;6.57;;
58091;SDS011;43896;48.178;11.578;2023-04-05T00:22:37;10.38;;;7.13;;
58091;SDS011;43896;48.178;11.578;2023-04-05T00:25:03;10.73;;;6.63;;
58091;SDS011;43896;48.178;11.578;2023-04-05T00:27:29;11.77;;;7.30;;
58091;SDS011;43896;48.178;11.578;2023-04-05T00:29:54;11.23;;;7.20;;
58091;SDS011;43896;48.178;11.578;2023-04-05T00:32:20;12.05;;;7.18;;
58091;SDS011;43896;48.178;11.578;2023-04-05T00:34:46;12.70;;;7.43;;
58091;SDS011;43896;48.178;11.578;2023-04-05T00:37:11;11.20;;;7.20;;
58091;SDS011;43896;48.178;11.578;2023-04-05T00:39:37;10.95;;;7.32;;
58091;SDS011;43896;48.178;11.578;2023-04-05T00:42:03;11.77;;;7.05;;
58091;SDS011;43896;48.178;11.578;2023-04-05T00:44:29;10.60;;;7.10;;
58091;SDS011;43896;48.178;11.578;2023-04-05T00:49:24;11.63;;;7.43;;
58091;SDS011;43896;48.178;11.578;2023-04-05T00:51:49;10.73;;;7.13;;
58091;SDS011;43896;48.178;11.578;2023-04-05T00:54:16;12.23;;;7.20;;
58091;SDS011;43896;48.178;11.578;2023-04-05T00:56:42;9.88;;;7.13;;
58091;SDS011;43896;48.178;11.578;2023-04-05T00:59:08;11.50;;;7.13;;
58091;SDS011;43896;48.178;11.578;2023-04-05T01:01:33;11.15;;;7.20;;
58091;SDS011;43896;48.178;11.578;2023-04-05T01:04:04;11.05;;;7.30;;
58091;SDS011;43896;48.178;11.578;2023-04-05T01:06:42;11.43;;;7.55;;
58091;SDS011;43896;48.178;11.578;2023-04-05T01:09:20;11.20;;;7.32;;
58091;SDS011;43896;48.178;11.578;2023-04-05T01:14:25;13.60;;;7.43;;
58091;SDS011;43896;48.178;11.578;2023-04-05T01:16:50;11.65;;;7.10;;
58091;SDS011;43896;48.178;11.578;2023-04-05T01:19:22;12.35;;;7.72;;
58091;SDS011;43896;48.178;11.578;2023-04-05T01:25:01;11.15;;;7.38;;
58091;SDS011;43896;48.178;11.578;2023-04-05T01:27:55;10.70;;;7.40;;
58091;SDS011;43896;48.178;11.578;2023-04-05T01:30:40;10.73;;;7.45;;
58091;SDS011;43896;48.178;11.578;2023-04-05T01:33:17;11.77;;;7.80;;
58091;SDS011;43896;48.178;11.578;2023-04-05T01:35:50;13.10;;;8.10;;
58091;SDS011;43896;48.178;11.578;2023-04-05T01:38:23;11.52;;;7.03;;
58091;SDS011;43896;48.178;11.578;2023-04-05T01:40:52;11.77;;;7.38;;
58091;SDS011;43896;48.178;11.578;2023-04-05T01:43:17;11.55;;;7.45;;
58091;SDS011;43896;48.178;11.578;2023-04-05T01:45:43;11.95;;;7.45;;
58091;SDS011;43896;48.178;11.578;2023-04-05T01:48:10;13.02;;;7.90;;
58091;SDS011;43896;48.178;11.578;2023-04-05T01:50:35;11.73;;;7.15;;
58091;SDS011;43896;48.178;11.578;2023-04-05T01:53:01;10.90;;;7.40;;
58091;SDS011;43896;48.178;11.578;2023-04-05T01:55:26;12.23;;;7.70;;
58091;SDS011;43896;48.178;11.578;2023-04-05T01:57:52;13.18;;;8.10;;
58091;SDS011;43896;48.178;11.578;2023-04-05T02:00:19;11.18;;;7.78;;
58091;SDS011;43896;48.178;11.578;2023-04-05T02:02:45;11.32;;;7.45;;
58091;SDS011;43896;48.178;11.578;2023-04-05T02:05:11;10.80;;;7.32;;
58091;SDS011;43896;48.178;11.578;2023-04-05T02:07:36;11.02;;;7.78;;
58091;SDS011;43896;48.178;11.578;2023-04-05T02:10:01;11.43;;;7.57;;
58091;SDS011;43896;48.178;11.578;2023-04-05T02:12:27;13.75;;;7.75;;
58091;SDS011;43896;48.178;11.578;2023-04-05T02:14:52;11.98;;;7.57;;
58091;SDS011;43896;48.178;11.578;2023-04-05T02:17:18;11.73;;;7.50;;
58091;SDS011;43896;48.178;11.578;2023-04-05T02:19:43;11.63;;;7.50;;
58091;SDS011;43896;48.178;11.578;2023-04-05T02:22:10;12.88;;;7.90;;
58091;SDS011;43896;48.178;11.578;2023-04-05T02:24:35;12.30;;;7.95;;
58091;SDS011;43896;48.178;11.578;2023-04-05T02:27:01;11.13;;;7.43;;
58091;SDS011;43896;48.178;11.578;2023-04-05T02:29:26;10.93;;;7.22;;
58091;SDS011;43896;48.178;11.578;2023-04-05T02:31:52;11.95;;;7.20;;
58091;SDS011;43896;48.178;11.578;2023-04-05T02:34:17;11.80;;;7.30;;
58091;SDS011;43896;48.178;11.578;2023-04-05T02:36:43;12.73;;;7.28;;
58091;SDS011;43896;48.178;11.578;2023-04-05T02:39:08;13.95;;;7.57;;
58091;SDS011;43896;48.178;11.578;2023-04-05T02:41:34;11.68;;;8.00;;
58091;SDS011;43896;48.178;11.578;2023-04-05T02:44:00;11.35;;;7.53;;
58091;SDS011;43896;48.178;11.578;2023-04-05T02:46:25;11.30;;;7.43;;
58091;SDS011;43896;48.178;11.578;2023-04-05T02:48:51;15.02;;;7.65;;
58091;SDS011;43896;48.178;11.578;2023-04-05T02:51:16;12.32;;;7.90;;
58091;SDS011;43896;48.178;11.578;2023-04-05T02:53:42;11.05;;;7.60;;
58091;SDS011;43896;48.178;11.578;2023-04-05T02:56:08;12.90;;;7.90;;
58091;SDS011;43896;48.178;11.578;2023-04-05T02:58:37;12.02;;;7.90;;
58091;SDS011;43896;48.178;11.578;2023-04-05T03:01:03;11.95;;;7.68;;
58091;SDS011;43896;48.178;11.578;2023-04-05T03:03:31;11.73;;;7.97;;
58091;SDS011;43896;48.178;11.578;2023-04-05T03:06:03;11.27;;;7.83;;
58091;SDS011;43896;48.178;11.578;2023-04-05T03:08:36;11.50;;;7.70;;
58091;SDS011;43896;48.178;11.578;2023-04-05T03:11:05;11.60;;;7.78;;
58091;SDS011;43896;48.178;11.578;2023-04-05T03:13:31;13.15;;;8.35;;
58091;SDS011;43896;48.178;11.578;2023-04-05T03:15:56;12.05;;;8.10;;
58091;SDS011;43896;48.178;11.578;2023-04-05T03:18:21;13.55;;;8.32;;
58091;SDS011;43896;48.178;11.578;2023-04-05T03:20:49;14.40;;;8.63;;
58091;SDS011;43896;48.178;11.578;2023-04-05T03:23:20;12.43;;;8.45;;
58091;SDS011;43896;48.178;11.578;2023-04-05T03:25:52;12.43;;;8.50;;
58091;SDS011;43896;48.178;11.578;2023-04-05T03:28:18;11.65;;;8.27;;
58091;SDS011;43896;48.178;11.578;2023-04-05T03:30:43;13.90;;;8.70;;
58091;SDS011;43896;48.178;11.578;2023-04-05T03:33:09;14.23;;;8.65;;
58091;SDS011;43896;48.178;11.578;2023-04-05T03:35:34;12.95;;;8.23;;
58091;SDS011;43896;48.178;11.578;2023-04-05T03:38:00;13.55;;;8.65;;
58091;SDS011;43896;48.178;11.578;2023-04-05T03:40:25;12.82;;;8.25;;
58091;SDS011;43896;48.178;11.578;2023-04-05T03:42:50;14.38;;;8.68;;
58091;SDS011;43896;48.178;11.578;2023-04-05T03:45:16;13.48;;;8.57;;
58091;SDS011;43896;48.178;11.578;2023-04-05T03:47:42;15.25;;;8.32;;
58091;SDS011;43896;48.178;11.578;2023-04-05T03:50:08;13.30;;;8.48;;
58091;SDS011;43896;48.178;11.578;2023-04-05T03:52:33;15.52;;;9.52;;
58091;SDS011;43896;48.178;11.578;2023-04-05T03:54:59;15.85;;;9.60;;
58091;SDS011;43896;48.178;11.578;2023-04-05T03:57:24;15.40;;;8.98;;
58091;SDS011;43896;48.178;11.578;2023-04-05T03:59:52;16.73;;;9.45;;
58091;SDS011;43896;48.178;11.578;2023-04-05T04:02:17;15.32;;;9.05;;
58091;SDS011;43896;48.178;11.578;2023-04-05T04:04:43;15.55;;;8.70;;
58091;SDS011;43896;48.178;11.578;2023-04-05T04:07:08;14.80;;;9.15;;
58091;SDS011;43896;48.178;11.578;2023-04-05T04:09:33;14.85;;;9.15;;
58091;SDS011;43896;48.178;11.578;2023-04-05T04:11:59;15.68;;;9.25;;
58091;SDS011;43896;48.178;11.578;2023-04-05T04:14:25;13.52;;;8.88;;
58091;SDS011;43896;48.178;11.578;2023-04-05T04:16:51;14.07;;;9.13;;
58091;SDS011;43896;48.178;11.578;2023-04-05T04:19:17;14.32;;;8.50;;
58091;SDS011;43896;48.178;11.578;2023-04-05T04:21:42;13.23;;;8.82;;
58091;SDS011;43896;48.178;11.578;2023-04-05T04:24:16;13.90;;;9.38;;
58091;SDS011;43896;48.178;11.578;2023-04-05T04:26:43;14.13;;;9.35;;
58091;SDS011;43896;48.178;11.578;2023-04-05T04:29:09;13.18;;;8.57;;
58091;SDS011;43896;48.178;11.578;2023-04-05T04:31:36;15.10;;;9.00;;
58091;SDS011;43896;48.178;11.578;2023-04-05T04:34:02;12.57;;;8.10;;
58091;SDS011;43896;48.178;11.578;2023-04-05T04:36:29;12.60;;;8.38;;
58091;SDS011;43896;48.178;11.578;2023-04-05T04:39:01;18.02;;;9.30;;
58091;SDS011;43896;48.178;11.578;2023-04-05T04:41:29;15.77;;;9.13;;
58091;SDS011;43896;48.178;11.578;2023-04-05T04:43:58;15.20;;;9.02;;
58091;SDS011;43896;48.178;11.578;2023-04-05T04:46:26;14.37;;;8.93;;
58091;SDS011;43896;48.178;11.578;2023-04-05T04:48:55;14.15;;;8.80;;
58091;SDS011;43896;48.178;11.578;2023-04-05T04:51:23;12.88;;;8.52;;
58091;SDS011;43896;48.178;11.578;2023-04-05T04:53:48;12.00;;;8.18;;
58091;SDS011;43896;48.178;11.578;2023-04-05T04:56:14;12.32;;;8.48;;
58091;SDS011;43896;48.178;11.578;2023-04-05T04:58:39;12.05;;;8.02;;
58091;SDS011;43896;48.178;11.578;2023-04-05T05:01:07;14.52;;;8.20;;
58091;SDS011;43896;48.178;11.578;2023-04-05T05:03:36;12.85;;;8.30;;
58091;SDS011;43896;48.178;11.578;2023-04-05T05:06:03;12.13;;;8.57;;
58091;SDS011;43896;48.178;11.578;2023-04-05T05:08:28;13.05;;;8.05;;
58091;SDS011;43896;48.178;11.578;2023-04-05T05:10:54;11.90;;;7.72;;
58091;SDS011;43896;48.178;11.578;2023-04-05T05:13:19;12.98;;;8.45;;
58091;SDS011;43896;48.178;11.578;2023-04-05T05:15:45;12.10;;;7.72;;
58091;SDS011;43896;48.178;11.578;2023-04-05T05:18:10;14.75;;;7.97;;
58091;SDS011;43896;48.178;11.578;2023-04-05T05:20:36;11.75;;;7.68;;
58091;SDS011;43896;48.178;11.578;2023-04-05T05:23:01;11.88;;;7.82;;
58091;SDS011;43896;48.178;11.578;2023-04-05T05:25:29;13.77;;;8.05;;
58091;SDS011;43896;48.178;11.578;2023-04-05T05:27:54;10.15;;;6.63;;
58091;SDS011;43896;48.178;11.578;2023-04-05T05:30:20;13.05;;;6.70;;
58091;SDS011;43896;48.178;11.578;2023-04-05T05:32:45;10.65;;;6.75;;
58091;SDS011;43896;48.178;11.578;2023-04-05T05:35:11;12.23;;;6.10;;
58091;SDS011;43896;48.178;11.578;2023-04-05T05:37:36;10.55;;;6.45;;
58091;SDS011;43896;48.178;11.578;2023-04-05T05:40:02;10.85;;;6.20;;
58091;SDS011;43896;48.178;11.578;2023-04-05T05:42:29;11.20;;;6.50;;
58091;SDS011;43896;48.178;11.578;2023-04-05T05:44:56;10.10;;;5.63;;
58091;SDS011;43896;48.178;11.578;2023-04-05T05:47:22;11.30;;;6.63;;
58091;SDS011;43896;48.178;11.578;2023-04-05T05:49:47;10.77;;;5.88;;
58091;SDS011;43896;48.178;11.578;2023-04-05T05:52:13;10.18;;;5.60;;
58091;SDS011;43896;48.178;11.578;2023-04-05T05:54:42;9.57;;;5.95;;
58091;SDS011;43896;48.178;11.578;2023-04-05T05:57:08;9.77;;;5.18;;
58091;SDS011;43896;48.178;11.578;2023-04-05T05:59:33;9.60;;;5.57;;
58091;SDS011;43896;48.178;11.578;2023-04-05T06:01:58;9.45;;;5.55;;
58091;SDS011;43896;48.178;11.578;2023-04-05T06:04:23;9.73;;;5.15;;
58091;SDS011;43896;48.178;11.578;2023-04-05T06:06:49;8.43;;;5.18;;
58091;SDS011;43896;48.178;11.578;2023-04-05T06:09:14;9.10;;;5.10;;
58091;SDS011;43896;48.178;11.578;2023-04-05T06:11:40;9.57;;;4.93;;
58091;SDS011;43896;48.178;11.578;2023-04-05T06:14:05;7.70;;;4.75;;
58091;SDS011;43896;48.178;11.578;2023-04-05T06:16:31;9.57;;;4.82;;
58091;SDS011;43896;48.178;11.578;2023-04-05T06:18:56;8.82;;;4.78;;
58091;SDS011;43896;48.178;11.578;2023-04-05T06:21:22;9.32;;;4.80;;
58091;SDS011;43896;48.178;11.578;2023-04-05T06:23:48;9.35;;;4.90;;
58091;SDS011;43896;48.178;11.578;2023-04-05T06:26:17;8.07;;;4.70;;
58091;SDS011;43896;48.178;11.578;2023-04-05T06:28:44;7.85;;;4.40;;
58091;SDS011;43896;48.178;11.578;2023-04-05T06:31:11;8.63;;;4.68;;
58091;SDS011;43896;48.178;11.578;2023-04-05T06:33:37;6.65;;;4.15;;
58091;SDS011;43896;48.178;11.578;2023-04-05T06:36:02;7.85;;;4.50;;
58091;SDS011;43896;48.178;11.578;2023-04-05T06:38:31;9.18;;;4.35;;
58091;SDS011;43896;48.178;11.578;2023-04-05T06:40:56;6.93;;;4.25;;
58091;SDS011;43896;48.178;11.578;2023-04-05T06:43:21;7.22;;;4.30;;
58091;SDS011;43896;48.178;11.578;2023-04-05T06:45:47;8.93;;;4.22;;
58091;SDS011;43896;48.178;11.578;2023-04-05T06:48:12;7.40;;;4.13;;
58091;SDS011;43896;48.178;11.578;2023-04-05T06:50:37;7.72;;;4.60;;
58091;SDS011;43896;48.178;11.578;2023-04-05T06:53:04;7.82;;;4.47;;
58091;SDS011;43896;48.178;11.578;2023-04-05T06:55:29;8.68;;;4.65;;
58091;SDS011;43896;48.178;11.578;2023-04-05T06:57:55;11.20;;;4.45;;
58091;SDS011;43896;48.178;11.578;2023-04-05T07:00:22;8.15;;;4.55;;
58091;SDS011;43896;48.178;11.578;2023-04-05T07:02:47;8.63;;;4.50;;
58091;SDS011;43896;48.178;11.578;2023-04-05T07:05:13;9.07;;;5.13;;
58091;SDS011;43896;48.178;11.578;2023-04-05T07:07:39;8.30;;;4.53;;
58091;SDS011;43896;48.178;11.578;2023-04-05T07:10:06;8.32;;;4.60;;
58091;SDS011;43896;48.178;11.578;2023-04-05T07:12:32;8.30;;;4.93;;
58091;SDS011;43896;48.178;11.578;2023-04-05T07:14:58;10.82;;;4.57;;
58091;SDS011;43896;48.178;11.578;2023-04-05T07:17:23;10.25;;;4.53;;
58091;SDS011;43896;48.178;11.578;2023-04-05T07:19:49;8.43;;;5.18;;
58091;SDS011;43896;48.178;11.578;2023-04-05T07:22:15;8.15;;;5.13;;
58091;SDS011;43896;48.178;11.578;2023-04-05T07:24:40;7.90;;;4.93;;
58091;SDS011;43896;48.178;11.578;2023-04-05T07:27:05;8.98;;;4.97;;
58091;SDS011;43896;48.178;11.578;2023-04-05T07:29:31;9.27;;;5.03;;
58091;SDS011;43896;48.178;11.578;2023-04-05T07:31:56;9.20;;;4.85;;
58091;SDS011;43896;48.178;11.578;2023-04-05T07:34:21;7.80;;;4.40;;
58091;SDS011;43896;48.178;11.578;2023-04-05T07:36:47;7.38;;;4.70;;
58091;SDS011;43896;48.178;11.578;2023-04-05T07:39:14;6.72;;;4.43;;
58091;SDS011;43896;48.178;11.578;2023-04-05T07:41:39;8.25;;;5.18;;
58091;SDS011;43896;48.178;11.578;2023-04-05T07:44:05;7.78;;;4.68;;
58091;SDS011;43896;48.178;11.578;2023-04-05T07:46:30;9.98;;;5.15;;
58091;SDS011;43896;48.178;11.578;2023-04-05T07:48:55;9.40;;;4.82;;
58091;SDS011;43896;48.178;11.578;2023-04-05T07:51:22;8.30;;;4.82;;
58091;SDS011;43896;48.178;11.578;2023-04-05T07:53:47;10.20;;;5.07;;
58091;SDS011;43896;48.178;11.578;2023-04-05T07:56:13;8.90;;;4.53;;
58091;SDS011;43896;48.178;11.578;2023-04-05T07:58:38;12.63;;;5.82;;
58091;SDS011;43896;48.178;11.578;2023-04-05T08:01:05;10.05;;;4.78;;
58091;SDS011;43896;48.178;11.578;2023-04-05T08:03:32;7.97;;;4.75;;
58091;SDS011;43896;48.178;11.578;2023-04-05T08:06:13;7.80;;;4.35;;
58091;SDS011;43896;48.178;11.578;2023-04-05T08:08:41;7.43;;;4.40;;
58091;SDS011;43896;48.178;11.578;2023-04-05T08:11:07;7.28;;;4.75;;
58091;SDS011;43896;48.178;11.578;2023-04-05T08:13:33;8.50;;;4.50;;
58091;SDS011;43896;48.178;11.578;2023-04-05T08:15:59;9.35;;;4.70;;
58091;SDS011;43896;48.178;11.578;2023-04-05T08:18:26;9.27;;;5.05;;
58091;SDS011;43896;48.178;11.578;2023-04-05T08:20:52;9.45;;;4.70;;
58091;SDS011;43896;48.178;11.578;2023-04-05T08:23:19;7.70;;;4.68;;
58091;SDS011;43896;48.178;11.578;2023-04-05T08:25:44;7.18;;;4.32;;
58091;SDS011;43896;48.178;11.578;2023-04-05T08:28:10;7.28;;;4.38;;
58091;SDS011;43896;48.178;11.578;2023-04-05T08:30:35;7.43;;;4.30;;
58091;SDS011;43896;48.178;11.578;2023-04-05T08:33:01;7.28;;;4.75;;
58091;SDS011;43896;48.178;11.578;2023-04-05T08:35:26;7.95;;;4.65;;
58091;SDS011;43896;48.178;11.578;2023-04-05T08:37:51;8.77;;;4.93;;
58091;SDS011;43896;48.178;11.578;2023-04-05T08:40:17;7.95;;;4.82;;
58091;SDS011;43896;48.178;11.578;2023-04-05T08:42:45;9.65;;;4.82;;
58091;SDS011;43896;48.178;11.578;2023-04-05T08:45:19;8.85;;;4.50;;
58091;SDS011;43896;48.178;11.578;2023-04-05T08:50:16;10.13;;;4.80;;
58091;SDS011;43896;48.178;11.578;2023-04-05T08:52:41;8.75;;;5.18;;
58091;SDS011;43896;48.178;11.578;2023-04-05T08:55:13;7.40;;;4.75;;
58091;SDS011;43896;48.178;11.578;2023-04-05T08:57:39;8.73;;;4.47;;
58091;SDS011;43896;48.178;11.578;2023-04-05T09:00:08;8.43;;;5.15;;
58091;SDS011;43896;48.178;11.578;2023-04-05T09:02:35;7.18;;;4.55;;
58091;SDS011;43896;48.178;11.578;2023-04-05T09:05:01;8.25;;;4.53;;
58091;SDS011;43896;48.178;11.578;2023-04-05T09:07:29;7.10;;;4.85;;
58091;SDS011;43896;48.178;11.578;2023-04-05T09:09:55;8.13;;;4.72;;
58091;SDS011;43896;48.178;11.578;2023-04-05T09:12:24;7.85;;;4.95;;
58091;SDS011;43896;48.178;11.578;2023-04-05T09:14:50;8.52;;;4.82;;
58091;SDS011;43896;48.178;11.578;2023-04-05T09:17:16;9.52;;;4.80;;
58091;SDS011;43896;48.178;11.578;2023-04-05T09:19:43;8.35;;;4.88;;
58091;SDS011;43896;48.178;11.578;2023-04-05T09:22:09;7.35;;;4.40;;
58091;SDS011;43896;48.178;11.578;2023-04-05T09:24:42;6.75;;;4.50;;
58091;SDS011;43896;48.178;11.578;2023-04-05T09:27:11;6.95;;;4.57;;
58091;SDS011;43896;48.178;11.578;2023-04-05T09:29:39;6.80;;;4.15;;
58091;SDS011;43896;48.178;11.578;2023-04-05T09:32:07;7.13;;;4.40;;
58091;SDS011;43896;48.178;11.578;2023-04-05T09:34:33;7.30;;;4.60;;
58091;SDS011;43896;48.178;11.578;2023-04-05T09:37:11;7.63;;;4.80;;
58091;SDS011;43896;48.178;11.578;2023-04-05T09:39:44;6.93;;;4.30;;
58091;SDS011;43896;48.178;11.578;2023-04-05T09:42:11;7.85;;;4.50;;
58091;SDS011;43896;48.178;11.578;2023-04-05T09:44:52;8.30;;;4.57;;
58091;SDS011;43896;48.178;11.578;2023-04-05T09:47:31;6.78;;;4.45;;
58091;SDS011;43896;48.178;11.578;2023-04-05T09:50:01;7.85;;;4.78;;
58091;SDS011;43896;48.178;11.578;2023-04-05T09:54:57;7.65;;;4.80;;
58091;SDS011;43896;48.178;11.578;2023-04-05T09:57:24;8.75;;;4.80;;
58091;SDS011;43896;48.178;11.578;2023-04-05T09:59:51;9.50;;;4.43;;
58091;SDS011;43896;48.178;11.578;2023-04-05T10:02:17;8.27;;;4.65;;
58091;SDS011;43896;48.178;11.578;2023-04-05T10:04:44;7.97;;;4.90;;
58091;SDS011;43896;48.178;11.578;2023-04-05T10:07:14;8.43;;;4.78;;
58091;SDS011;43896;48.178;11.578;2023-04-05T10:09:41;7.43;;;5.00;;
58091;SDS011;43896;48.178;11.578;2023-04-05T10:12:08;7.60;;;4.82;;
58091;SDS011;43896;48.178;11.578;2023-04-05T10:14:35;7.60;;;4.50;;
58091;SDS011;43896;48.178;11.578;2023-04-05T10:22:29;7.05;;;4.70;;
58091;SDS011;43896;48.178;11.578;2023-04-05T10:28:13;6.75;;;4.60;;
58091;SDS011;43896;48.178;11.578;2023-04-05T10:30:50;7.38;;;4.50;;
58091;SDS011;43896;48.178;11.578;2023-04-05T10:38:25;7.18;;;4.65;;
58091;SDS011;43896;48.178;11.578;2023-04-05T10:40:53;8.23;;;4.90;;
58091;SDS011;43896;48.178;11.578;2023-04-05T10:43:29;7.40;;;4.50;;
58091;SDS011;43896;48.178;11.578;2023-04-05T10:45:58;9.20;;;4.78;;
58091;SDS011;43896;48.178;11.578;2023-04-05T10:51:02;7.35;;;4.45;;
58091;SDS011;43896;48.178;11.578;2023-04-05T10:53:29;6.72;;;4.93;;
58091;SDS011;43896;48.178;11.578;2023-04-05T10:55:56;7.35;;;4.90;;
58091;SDS011;43896;48.178;11.578;2023-04-05T10:58:23;6.90;;;4.70;;
58091;SDS011;43896;48.178;11.578;2023-04-05T11:00:49;6.93;;;4.72;;
58091;SDS011;43896;48.178;11.578;2023-04-05T11:06:18;8.68;;;4.65;;
58091;SDS011;43896;48.178;11.578;2023-04-05T11:08:45;6.78;;;4.25;;
58091;SDS011;43896;48.178;11.578;2023-04-05T11:11:13;7.32;;;5.03;;
58091;SDS011;43896;48.178;11.578;2023-04-05T11:16:14;7.25;;;4.55;;
58091;SDS011;43896;48.178;11.578;2023-04-05T11:18:46;9.10;;;4.75;;
58091;SDS011;43896;48.178;11.578;2023-04-05T11:21:25;6.80;;;5.10;;
58091;SDS011;43896;48.178;11.578;2023-04-05T11:29:08;6.55;;;5.13;;
58091;SDS011;43896;48.178;11.578;2023-04-05T11:31:34;7.63;;;4.90;;
58091;SDS011;43896;48.178;11.578;2023-04-05T11:34:04;7.25;;;4.63;;
58091;SDS011;43896;48.178;11.578;2023-04-05T11:41:56;7.28;;;4.72;;
58091;SDS011;43896;48.178;11.578;2023-04-05T11:44:23;6.57;;;4.25;;
58091;SDS011;43896;48.178;11.578;2023-04-05T11:46:49;8.75;;;5.22;;
58091;SDS011;43896;48.178;11.578;2023-04-05T11:49:16;6.72;;;4.47;;
58091;SDS011;43896;48.178;11.578;2023-04-05T11:51:41;7.05;;;4.70;;
58091;SDS011;43896;48.178;11.578;2023-04-05T11:54:08;7.20;;;4.95;;
58091;SDS011;43896;48.178;11.578;2023-04-05T11:56:34;6.63;;;4.75;;
58091;SDS011;43896;48.178;11.578;2023-04-05T11:58:59;7.28;;;4.65;;
58091;SDS011;43896;48.178;11.578;2023-04-05T12:01:25;7.38;;;4.78;;
58091;SDS011;43896;48.178;11.578;2023-04-05T12:03:54;7.57;;;4.50;;
58091;SDS011;43896;48.178;11.578;2023-04-05T12:08:49;9.10;;;4.93;;
58091;SDS011;43896;48.178;11.578;2023-04-05T12:11:16;7.22;;;4.88;;
58091;SDS011;43896;48.178;11.578;2023-04-05T12:13:50;7.28;;;4.90;;
58091;SDS011;43896;48.178;11.578;2023-04-05T12:16:18;8.35;;;4.70;;
58091;SDS011;43896;48.178;11.578;2023-04-05T12:18:44;7.28;;;4.45;;
58091;SDS011;43896;48.178;11.578;2023-04-05T12:21:09;7.70;;;4.90;;
58091;SDS011;43896;48.178;11.578;2023-04-05T12:23:35;9.93;;;4.97;;
58091;SDS011;43896;48.178;11.578;2023-04-05T12:26:01;7.07;;;4.75;;
58091;SDS011;43896;48.178;11.578;2023-04-05T12:31:33;8.13;;;5.30;;
58091;SDS011;43896;48.178;11.578;2023-04-05T12:34:06;7.07;;;4.63;;
58091;SDS011;43896;48.178;11.578;2023-04-05T12:36:32;8.13;;;5.28;;
58091;SDS011;43896;48.178;11.578;2023-04-05T12:38:58;6.60;;;4.90;;
58091;SDS011;43896;48.178;11.578;2023-04-05T12:41:30;7.80;;;4.85;;
58091;SDS011;43896;48.178;11.578;2023-04-05T12:43:58;7.80;;;5.22;;
58091;SDS011;43896;48.178;11.578;2023-04-05T12:46:41;7.30;;;4.90;;
58091;SDS011;43896;48.178;11.578;2023-04-05T12:49:17;6.55;;;4.63;;
58091;SDS011;43896;48.178;11.578;2023-04-05T12:51:46;7.32;;;5.10;;
58091;SDS011;43896;48.178;11.578;2023-04-05T12:54:12;9.23;;;4.57;;
58091;SDS011;43896;48.178;11.578;2023-04-05T12:56:38;9.18;;;5.15;;
58091;SDS011;43896;48.178;11.578;2023-04-05T12:59:05;7.97;;;5.25;;
58091;SDS011;43896;48.178;11.578;2023-04-05T13:01:31;7.38;;;5.30;;
58091;SDS011;43896;48.178;11.578;2023-04-05T13:04:00;7.18;;;5.40;;
58091;SDS011;43896;48.178;11.578;2023-04-05T13:06:29;7.30;;;4.63;;
58091;SDS011;43896;48.178;11.578;2023-04-05T13:08:55;7.57;;;5.40;;
58091;SDS011;43896;48.178;11.578;2023-04-05T13:11:20;7.55;;;4.57;;
58091;SDS011;43896;48.178;11.578;2023-04-05T13:13:49;9.20;;;4.90;;
58091;SDS011;43896;48.178;11.578;2023-04-05T13:16:14;7.05;;;5.05;;
58091;SDS011;43896;48.178;11.578;2023-04-05T13:18:40;8.02;;;5.13;;
58091;SDS011;43896;48.178;11.578;2023-04-05T13:21:06;6.07;;;4.60;;
58091;SDS011;43896;48.178;11.578;2023-04-05T13:23:33;7.05;;;4.90;;
58091;SDS011;43896;48.178;11.578;2023-04-05T13:25:59;7.15;;;4.35;;
58091;SDS011;43896;48.178;11.578;2023-04-05T13:28:24;6.80;;;4.95;;
58091;SDS011;43896;48.178;11.578;2023-04-05T13:30:51;7.43;;;4.90;;
58091;SDS011;43896;48.178;11.578;2023-04-05T13:33:16;8.55;;;5.53;;
58091;SDS011;43896;48.178;11.578;2023-04-05T13:35:42;7.82;;;5.13;;
58091;SDS011;43896;48.178;11.578;2023-04-05T13:38:08;7.72;;;5.10;;
58091;SDS011;43896;48.178;11.578;2023-04-05T13:40:33;7.80;;;5.13;;
58091;SDS011;43896;48.178;11.578;2023-04-05T13:42:58;7.25;;;4.85;;
58091;SDS011;43896;48.178;11.578;2023-04-05T13:45:25;8.32;;;5.03;;
58091;SDS011;43896;48.178;11.578;2023-04-05T13:47:51;6.68;;;4.60;;
58091;SDS011;43896;48.178;11.578;2023-04-05T13:50:17;6.60;;;4.45;;
58091;SDS011;43896;48.178;11.578;2023-04-05T13:52:42;7.28;;;4.80;;
58091;SDS011;43896;48.178;11.578;2023-04-05T13:55:08;6.47;;;4.43;;
58091;SDS011;43896;48.178;11.578;2023-04-05T13:57:33;7.03;;;4.57;;
58091;SDS011;43896;48.178;11.578;2023-04-05T13:59:58;7.00;;;5.30;;
58091;SDS011;43896;48.178;11.578;2023-04-05T14:02:24;6.40;;;4.75;;
58091;SDS011;43896;48.178;11.578;2023-04-05T14:04:51;7.18;;;4.93;;
58091;SDS011;43896;48.178;11.578;2023-04-05T14:07:17;6.15;;;4.70;;
58091;SDS011;43896;48.178;11.578;2023-04-05T14:09:42;7.13;;;5.15;;
58091;SDS011;43896;48.178;11.578;2023-04-05T14:12:09;7.53;;;5.22;;
58091;SDS011;43896;48.178;11.578;2023-04-05T14:14:35;8.82;;;5.00;;
58091;SDS011;43896;48.178;11.578;2023-04-05T14:17:00;7.10;;;4.90;;
58091;SDS011;43896;48.178;11.578;2023-04-05T14:19:25;8.15;;;5.35;;
58091;SDS011;43896;48.178;11.578;2023-04-05T14:21:51;6.90;;;5.07;;
58091;SDS011;43896;48.178;11.578;2023-04-05T14:24:16;8.00;;;4.78;;
58091;SDS011;43896;48.178;11.578;2023-04-05T14:26:42;7.60;;;4.97;;
58091;SDS011;43896;48.178;11.578;2023-04-05T14:29:13;7.47;;;4.63;;
58091;SDS011;43896;48.178;11.578;2023-04-05T14:31:39;7.90;;;4.95;;
58091;SDS011;43896;48.178;11.578;2023-04-05T14:34:04;6.45;;;4.55;;
58091;SDS011;43896;48.178;11.578;2023-04-05T14:36:30;6.15;;;4.47;;
58091;SDS011;43896;48.178;11.578;2023-04-05T14:38:55;6.50;;;4.53;;
58091;SDS011;43896;48.178;11.578;2023-04-05T14:41:21;8.93;;;4.53;;
58091;SDS011;43896;48.178;11.578;2023-04-05T14:43:46;7.28;;;4.85;;
58091;SDS011;43896;48.178;11.578;2023-04-05T14:46:11;6.93;;;4.53;;
58091;SDS011;43896;48.178;11.578;2023-04-05T14:48:37;7.85;;;4.93;;
58091;SDS011;43896;48.178;11.578;2023-04-05T14:51:03;6.97;;;5.00;;
58091;SDS011;43896;48.178;11.578;2023-04-05T14:53:28;6.60;;;4.60;;
58091;SDS011;43896;48.178;11.578;2023-04-05T14:55:54;7.40;;;5.07;;
58091;SDS011;43896;48.178;11.578;2023-04-05T14:58:19;8.32;;;5.00;;
58091;SDS011;43896;48.178;11.578;2023-04-05T15:00:45;10.35;;;5.03;;
58091;SDS011;43896;48.178;11.578;2023-04-05T15:03:13;7.55;;;4.93;;
58091;SDS011;43896;48.178;11.578;2023-04-05T15:05:39;8.60;;;5.10;;
58091;SDS011;43896;48.178;11.578;2023-04-05T15:08:04;9.70;;;5.55;;
58091;SDS011;43896;48.178;11.578;2023-04-05T15:10:31;8.05;;;5.30;;
58091;SDS011;43896;48.178;11.578;2023-04-05T15:12:57;6.97;;;4.55;;
58091;SDS011;43896;48.178;11.578;2023-04-05T15:15:23;6.40;;;4.68;;
58091;SDS011;43896;48.178;11.578;2023-04-05T15:17:48;7.57;;;5.40;;